Time;durP1;ratioP1;P1;durP2;ratioP2;P2;SDS_P1;SDS_P2;PMS_P1;PMS_P2;Temp;Humidity;BMP_temperature;BMP_pressure;BME280_temperature;BME280_humidity;BME280_pressure;Samples;Min_cycle;Max_cycle;Signal;HPM_P1;HPM_P2
2022/02/17 00:01:31;;;;;;;9.97;7.17;;;;;;;;;;5001951;28;20041;-54
2022/02/17 00:03:56;;;;;;;9.80;7.50;;;;;;;;;;5000952;28;20265;-55
2022/02/17 00:06:22;;;;;;;10.43;7.63;;;;;;;;;;4996983;28;20033;-54
2022/02/17 00:08:47;;;;;;;10.80;7.80;;;;;;;;;;5001546;28;20311;-53
2022/02/17 00:11:13;;;;;;;11.23;7.20;;;;;;;;;;5001629;28;20146;-52
2022/02/17 00:13:38;;;;;;;11.05;7.18;;;;;;;;;;4984427;28;20018;-56
2022/02/17 00:16:03;;;;;;;10.93;7.00;;;;;;;;;;5001565;28;20026;-54
2022/02/17 00:18:28;;;;;;;10.52;7.45;;;;;;;;;;5001666;28;20022;-56
2022/02/17 00:20:55;;;;;;;9.15;6.97;;;;;;;;;;5001452;28;20516;-56
2022/02/17 00:23:21;;;;;;;9.48;6.93;;;;;;;;;;5001075;28;20021;-56
2022/02/17 00:25:46;;;;;;;9.50;7.35;;;;;;;;;;5001007;28;20071;-56
2022/02/17 00:28:11;;;;;;;9.57;6.97;;;;;;;;;;5000956;28;20051;-55
2022/02/17 00:30:37;;;;;;;9.82;7.38;;;;;;;;;;5001413;28;20099;-56
2022/02/17 00:33:02;;;;;;;10.07;7.33;;;;;;;;;;5001134;28;20025;-56
2022/02/17 00:35:30;;;;;;;11.02;7.80;;;;;;;;;;5000534;28;20640;-55
2022/02/17 00:37:55;;;;;;;9.02;7.03;;;;;;;;;;5000738;28;20018;-56
2022/02/17 00:40:20;;;;;;;10.83;7.23;;;;;;;;;;5001330;28;20034;-55
2022/02/17 00:42:45;;;;;;;10.90;7.37;;;;;;;;;;5001244;28;20272;-55
2022/02/17 00:45:11;;;;;;;10.33;7.27;;;;;;;;;;4982946;28;20038;-55
2022/02/17 00:47:36;;;;;;;9.82;7.55;;;;;;;;;;5000673;28;20327;-55
2022/02/17 00:50:01;;;;;;;12.02;7.22;;;;;;;;;;5000976;28;20408;-54
2022/02/17 00:52:27;;;;;;;10.90;7.63;;;;;;;;;;5000829;28;20030;-55
2022/02/17 00:54:52;;;;;;;10.15;7.75;;;;;;;;;;5000993;28;20172;-55
2022/02/17 00:57:18;;;;;;;10.07;7.55;;;;;;;;;;5000561;28;20377;-55
2022/02/17 00:59:43;;;;;;;10.35;7.72;;;;;;;;;;4983341;28;20109;-58
2022/02/17 01:02:08;;;;;;;10.47;7.53;;;;;;;;;;5001033;28;20041;-54
2022/02/17 01:04:34;;;;;;;10.50;7.55;;;;;;;;;;5000624;28;20272;-55
2022/02/17 01:06:59;;;;;;;9.35;7.07;;;;;;;;;;5000203;28;20479;-55
2022/02/17 01:09:24;;;;;;;9.67;7.50;;;;;;;;;;5000578;28;20033;-55
2022/02/17 01:11:49;;;;;;;10.83;7.80;;;;;;;;;;4999875;28;20359;-55
2022/02/17 01:14:15;;;;;;;11.13;7.90;;;;;;;;;;4999663;28;20937;-56
2022/02/17 01:16:40;;;;;;;10.97;7.70;;;;;;;;;;5000675;28;21326;-55
2022/02/17 01:19:05;;;;;;;11.52;7.50;;;;;;;;;;5000777;28;20276;-56
2022/02/17 01:21:30;;;;;;;10.98;7.22;;;;;;;;;;5000195;28;20025;-56
2022/02/17 01:23:56;;;;;;;10.48;7.13;;;;;;;;;;4999689;28;20021;-56
2022/02/17 01:26:21;;;;;;;10.50;7.70;;;;;;;;;;5000068;28;20141;-55
2022/02/17 01:28:46;;;;;;;9.73;7.30;;;;;;;;;;4999919;28;20834;-56
2022/02/17 01:31:12;;;;;;;10.63;7.57;;;;;;;;;;4987249;28;20058;-56
2022/02/17 01:33:37;;;;;;;10.48;7.65;;;;;;;;;;5012861;28;20268;-53
2022/02/17 01:36:08;;;;;;;10.03;7.43;;;;;;;;;;5000222;28;21389;-55
2022/02/17 01:38:34;;;;;;;10.80;7.68;;;;;;;;;;5000257;28;21110;-55
2022/02/17 01:40:59;;;;;;;10.02;7.72;;;;;;;;;;5000366;28;20059;-55
2022/02/17 01:43:24;;;;;;;9.47;7.07;;;;;;;;;;4999256;28;20060;-53
2022/02/17 01:45:50;;;;;;;10.03;7.47;;;;;;;;;;5001556;28;20304;-55
2022/02/17 01:48:15;;;;;;;9.60;7.23;;;;;;;;;;4999439;28;20387;-55
2022/02/17 01:50:41;;;;;;;10.67;7.33;;;;;;;;;;4994344;28;20384;-55
2022/02/17 01:53:09;;;;;;;10.90;7.57;;;;;;;;;;4996007;28;20132;-56
2022/02/17 01:55:38;;;;;;;11.50;7.40;;;;;;;;;;5000390;28;20105;-57
2022/02/17 01:58:03;;;;;;;10.55;7.55;;;;;;;;;;5000030;28;20026;-55
2022/02/17 02:00:29;;;;;;;10.05;7.20;;;;;;;;;;4979675;28;20445;-55
2022/02/17 02:02:54;;;;;;;9.43;7.68;;;;;;;;;;4991924;28;20099;-56
2022/02/17 02:05:19;;;;;;;9.73;7.27;;;;;;;;;;5004462;28;20496;-55
2022/02/17 02:07:44;;;;;;;11.13;7.55;;;;;;;;;;5003909;28;20022;-59
2022/02/17 02:10:09;;;;;;;10.77;7.67;;;;;;;;;;5004213;28;20108;-55
2022/02/17 02:12:35;;;;;;;11.53;7.80;;;;;;;;;;5003971;28;20321;-55
2022/02/17 02:15:00;;;;;;;10.93;7.88;;;;;;;;;;5004224;28;20108;-55
2022/02/17 02:17:26;;;;;;;10.25;7.45;;;;;;;;;;5004185;28;20174;-55
2022/02/17 02:19:56;;;;;;;10.40;7.55;;;;;;;;;;5003677;28;20022;-56
2022/02/17 02:22:22;;;;;;;10.88;7.55;;;;;;;;;;5004256;28;20045;-55
2022/02/17 02:24:47;;;;;;;9.60;7.13;;;;;;;;;;5003568;28;20034;-55
2022/02/17 02:27:15;;;;;;;10.75;8.02;;;;;;;;;;5004453;28;20387;-54
2022/02/17 02:29:41;;;;;;;10.45;7.43;;;;;;;;;;5003386;28;20018;-55
2022/02/17 02:32:06;;;;;;;9.98;7.47;;;;;;;;;;5003986;28;20033;-55
2022/02/17 02:34:32;;;;;;;11.02;7.20;;;;;;;;;;4995591;28;20575;-55
2022/02/17 02:36:57;;;;;;;11.60;8.03;;;;;;;;;;4976679;28;20038;-55
2022/02/17 02:39:22;;;;;;;9.57;7.20;;;;;;;;;;5002941;28;20022;-56
2022/02/17 02:41:47;;;;;;;10.20;7.83;;;;;;;;;;5002449;28;20030;-55
2022/02/17 02:44:12;;;;;;;11.63;7.43;;;;;;;;;;5003491;28;20356;-53
2022/02/17 02:46:38;;;;;;;9.97;7.30;;;;;;;;;;5002954;28;20111;-55
2022/02/17 02:49:04;;;;;;;11.13;7.30;;;;;;;;;;4985191;28;20296;-55
2022/02/17 02:51:30;;;;;;;10.00;7.22;;;;;;;;;;5002874;28;20450;-54
2022/02/17 02:53:55;;;;;;;9.32;7.13;;;;;;;;;;5001695;28;20014;-55
2022/02/17 02:56:21;;;;;;;10.90;7.50;;;;;;;;;;5002617;28;20026;-54
2022/02/17 02:58:46;;;;;;;11.23;7.80;;;;;;;;;;5002089;28;20762;-54
2022/02/17 03:01:12;;;;;;;10.33;7.23;;;;;;;;;;5003122;28;20038;-55
2022/02/17 03:03:37;;;;;;;11.73;7.50;;;;;;;;;;5002767;28;20277;-55
2022/02/17 03:06:02;;;;;;;10.50;7.93;;;;;;;;;;4983064;28;20309;-56
2022/02/17 03:08:27;;;;;;;11.73;7.97;;;;;;;;;;4982862;28;20515;-54
2022/02/17 03:10:53;;;;;;;9.60;7.30;;;;;;;;;;4983217;28;20305;-55
2022/02/17 03:13:18;;;;;;;8.80;6.78;;;;;;;;;;5008623;28;20276;-56
2022/02/17 03:15:43;;;;;;;10.53;7.50;;;;;;;;;;5005198;28;20427;-55
2022/02/17 03:18:08;;;;;;;9.97;7.50;;;;;;;;;;5002189;28;20886;-54
2022/02/17 03:20:34;;;;;;;9.93;7.20;;;;;;;;;;5002535;28;20643;-55
2022/02/17 03:22:59;;;;;;;10.95;7.97;;;;;;;;;;4983894;28;20117;-55
2022/02/17 03:25:25;;;;;;;11.20;7.97;;;;;;;;;;5002391;28;20815;-54
2022/02/17 03:27:50;;;;;;;12.63;8.40;;;;;;;;;;5000311;28;20292;-55
2022/02/17 03:30:15;;;;;;;10.70;7.63;;;;;;;;;;4982677;28;20026;-55
2022/02/17 03:32:41;;;;;;;11.15;7.78;;;;;;;;;;4999177;28;20363;-53
2022/02/17 03:35:06;;;;;;;11.43;7.60;;;;;;;;;;5009802;28;20556;-54
2022/02/17 03:37:32;;;;;;;9.75;7.28;;;;;;;;;;4993142;28;20384;-55
2022/02/17 03:39:57;;;;;;;9.70;7.35;;;;;;;;;;5001525;28;20026;-55
2022/02/17 03:42:22;;;;;;;10.37;7.37;;;;;;;;;;5001497;28;20045;-55
2022/02/17 03:44:47;;;;;;;11.53;7.70;;;;;;;;;;5002020;28;20273;-54
2022/02/17 03:47:13;;;;;;;10.80;7.63;;;;;;;;;;5002094;28;20317;-54
2022/02/17 03:49:38;;;;;;;10.38;7.95;;;;;;;;;;4985475;28;20062;-55
2022/02/17 03:52:03;;;;;;;12.07;8.30;;;;;;;;;;4980324;28;20022;-53
2022/02/17 03:54:28;;;;;;;10.35;7.45;;;;;;;;;;4988650;28;20291;-55
2022/02/17 03:56:54;;;;;;;11.13;7.72;;;;;;;;;;5001234;28;20030;-55
2022/02/17 03:59:19;;;;;;;9.83;7.33;;;;;;;;;;4995797;28;20462;-53
2022/02/17 04:01:44;;;;;;;12.03;8.57;;;;;;;;;;5002026;28;20850;-56
2022/02/17 04:04:10;;;;;;;11.10;7.47;;;;;;;;;;5000935;28;20969;-55
2022/02/17 04:06:35;;;;;;;10.02;7.80;;;;;;;;;;5001772;28;20328;-54
2022/02/17 04:09:00;;;;;;;10.07;7.07;;;;;;;;;;4980683;28;20512;-55
2022/02/17 04:11:26;;;;;;;9.37;6.87;;;;;;;;;;4990245;28;20061;-53
2022/02/17 04:13:51;;;;;;;10.55;7.70;;;;;;;;;;5000892;28;20085;-53
2022/02/17 04:16:17;;;;;;;9.43;7.25;;;;;;;;;;5001688;28;20033;-54
2022/02/17 04:18:43;;;;;;;9.48;6.38;;;;;;;;;;4983693;28;20029;-55
2022/02/17 04:21:08;;;;;;;10.00;7.38;;;;;;;;;;5000619;28;20674;-54
2022/02/17 04:23:34;;;;;;;10.25;7.72;;;;;;;;;;5001316;28;20508;-54
2022/02/17 04:25:59;;;;;;;10.23;7.22;;;;;;;;;;5000872;28;20569;-55
2022/02/17 04:28:24;;;;;;;10.63;7.87;;;;;;;;;;5000990;28;20504;-58
2022/02/17 04:30:50;;;;;;;10.70;8.13;;;;;;;;;;5001377;28;20492;-56
2022/02/17 04:33:15;;;;;;;9.97;7.23;;;;;;;;;;4993973;28;20651;-56
2022/02/17 04:35:40;;;;;;;10.05;7.40;;;;;;;;;;4991502;28;20312;-55
2022/02/17 04:38:05;;;;;;;9.90;7.40;;;;;;;;;;4983477;28;20057;-53
2022/02/17 04:43:16;;;;;;;9.55;7.22;;;;;;;;;;4947323;28;20690;-56
2022/02/17 04:45:41;;;;;;;9.83;7.30;;;;;;;;;;4972570;28;20038;-56
2022/02/17 04:48:07;;;;;;;9.93;7.07;;;;;;;;;;4994929;28;20037;-55
2022/02/17 04:50:32;;;;;;;11.30;7.73;;;;;;;;;;5000008;28;20018;-56
2022/02/17 04:52:57;;;;;;;10.80;7.35;;;;;;;;;;5000258;28;20269;-55
2022/02/17 04:55:23;;;;;;;9.38;7.40;;;;;;;;;;5000539;28;20456;-55
2022/02/17 04:57:48;;;;;;;8.25;6.47;;;;;;;;;;5000392;28;20034;-56
2022/02/17 05:00:13;;;;;;;10.10;7.07;;;;;;;;;;4986044;28;20051;-56
2022/02/17 05:02:38;;;;;;;8.73;6.45;;;;;;;;;;4998997;28;20091;-55
2022/02/17 05:05:04;;;;;;;8.97;6.77;;;;;;;;;;5000143;28;20014;-55
2022/02/17 05:07:30;;;;;;;9.75;7.05;;;;;;;;;;5000576;28;20288;-56
2022/02/17 05:09:55;;;;;;;10.45;8.00;;;;;;;;;;5000910;28;20025;-56
2022/02/17 05:12:20;;;;;;;9.37;7.00;;;;;;;;;;5000941;28;20038;-56
2022/02/17 05:14:45;;;;;;;9.30;7.03;;;;;;;;;;5000062;28;20045;-56
2022/02/17 05:17:11;;;;;;;9.20;6.43;;;;;;;;;;5000455;28;20025;-56
2022/02/17 05:19:36;;;;;;;10.47;7.87;;;;;;;;;;4982295;28;20034;-55
2022/02/17 05:22:02;;;;;;;10.38;7.22;;;;;;;;;;4979409;28;20024;-56
2022/02/17 05:24:27;;;;;;;9.13;6.95;;;;;;;;;;4988725;28;20037;-56
2022/02/17 05:26:54;;;;;;;9.73;7.65;;;;;;;;;;4999913;28;20064;-55
2022/02/17 05:29:19;;;;;;;9.63;7.00;;;;;;;;;;5000621;28;20059;-53
2022/02/17 05:31:44;;;;;;;10.50;7.40;;;;;;;;;;5000432;28;20500;-55
2022/02/17 05:34:09;;;;;;;10.10;6.87;;;;;;;;;;4999887;28;20789;-56
2022/02/17 05:36:34;;;;;;;10.20;6.80;;;;;;;;;;4993074;28;20919;-56
2022/02/17 05:39:00;;;;;;;10.23;7.10;;;;;;;;;;4999536;28;20473;-55
2022/02/17 05:41:25;;;;;;;9.80;7.20;;;;;;;;;;4999959;28;20272;-55
2022/02/17 05:43:50;;;;;;;9.27;7.27;;;;;;;;;;4999748;28;20272;-54
2022/02/17 05:46:15;;;;;;;9.13;7.00;;;;;;;;;;4994782;28;20354;-56
2022/02/17 05:48:41;;;;;;;9.97;7.23;;;;;;;;;;4998369;28;20676;-55
2022/02/17 05:51:06;;;;;;;10.82;7.50;;;;;;;;;;4997451;28;20292;-57
2022/02/17 05:53:32;;;;;;;10.20;7.03;;;;;;;;;;4999258;28;20064;-56
2022/02/17 05:55:57;;;;;;;8.00;6.73;;;;;;;;;;4999771;28;20283;-56
2022/02/17 05:58:22;;;;;;;9.90;6.90;;;;;;;;;;4999931;28;20272;-56
2022/02/17 06:00:47;;;;;;;11.27;7.30;;;;;;;;;;5001766;28;20022;-58
2022/02/17 06:03:13;;;;;;;10.57;7.47;;;;;;;;;;4977611;28;20038;-56
2022/02/17 06:05:38;;;;;;;9.15;6.90;;;;;;;;;;4991175;28;20034;-55
2022/02/17 06:08:05;;;;;;;8.80;6.80;;;;;;;;;;4999422;28;20037;-56
2022/02/17 06:10:30;;;;;;;10.23;7.15;;;;;;;;;;4999632;28;20014;-55
2022/02/17 06:12:56;;;;;;;9.02;6.82;;;;;;;;;;4999238;28;20792;-57
2022/02/17 06:15:21;;;;;;;9.60;6.83;;;;;;;;;;4982343;28;20088;-58
2022/02/17 06:17:46;;;;;;;10.20;7.18;;;;;;;;;;4999940;28;20029;-57
2022/02/17 06:20:11;;;;;;;9.27;7.20;;;;;;;;;;4985994;28;20048;-57
2022/02/17 06:23:03;;;;;;;10.10;7.10;;;;;;;;;;4979248;28;20265;-58
2022/02/17 06:25:28;;;;;;;9.55;6.72;;;;;;;;;;4976653;28;20084;-57
2022/02/17 06:27:53;;;;;;;10.37;6.73;;;;;;;;;;4991519;28;20037;-58
2022/02/17 06:30:20;;;;;;;9.20;6.93;;;;;;;;;;4999660;28;20269;-56
2022/02/17 06:32:52;;;;;;;10.52;6.47;;;;;;;;;;5001389;28;20037;-58
2022/02/17 06:35:18;;;;;;;8.75;7.53;;;;;;;;;;5001285;28;20603;-57
2022/02/17 06:37:43;;;;;;;9.55;7.05;;;;;;;;;;4998418;28;20041;-59
2022/02/17 06:40:09;;;;;;;8.25;6.15;;;;;;;;;;4998965;28;20467;-55
2022/02/17 06:42:34;;;;;;;8.93;6.63;;;;;;;;;;4997969;28;20057;-57
2022/02/17 06:44:59;;;;;;;8.60;7.00;;;;;;;;;;4998853;28;20112;-57
2022/02/17 06:47:24;;;;;;;9.90;7.00;;;;;;;;;;4998892;28;20116;-58
2022/02/17 06:49:49;;;;;;;10.03;7.00;;;;;;;;;;4999587;28;20030;-56
2022/02/17 06:52:15;;;;;;;10.27;6.80;;;;;;;;;;5002486;28;20292;-56
2022/02/17 06:54:42;;;;;;;9.67;6.63;;;;;;;;;;5001548;28;20018;-57
2022/02/17 06:57:07;;;;;;;7.78;6.70;;;;;;;;;;5001841;28;20415;-58
2022/02/17 06:59:33;;;;;;;8.53;6.73;;;;;;;;;;5002614;28;20104;-57
2022/02/17 07:01:58;;;;;;;8.73;6.57;;;;;;;;;;5001610;28;20265;-56
2022/02/17 07:04:23;;;;;;;9.17;7.00;;;;;;;;;;5000878;28;20056;-56
2022/02/17 07:06:49;;;;;;;8.13;6.73;;;;;;;;;;5001391;28;20901;-57
2022/02/17 07:09:14;;;;;;;8.60;6.70;;;;;;;;;;4979791;28;20524;-59
2022/02/17 07:11:39;;;;;;;9.00;6.78;;;;;;;;;;5000706;28;20033;-57
2022/02/17 07:14:04;;;;;;;8.02;6.40;;;;;;;;;;5001777;28;20121;-56
2022/02/17 07:16:30;;;;;;;10.53;7.13;;;;;;;;;;5002025;28;20468;-56
2022/02/17 07:18:55;;;;;;;9.07;6.83;;;;;;;;;;5001915;28;20253;-57
2022/02/17 07:21:20;;;;;;;8.70;6.83;;;;;;;;;;5001862;28;20133;-57
2022/02/17 07:23:45;;;;;;;8.80;6.90;;;;;;;;;;4983355;28;20013;-57
2022/02/17 07:26:11;;;;;;;9.88;7.30;;;;;;;;;;4996737;28;20328;-57
2022/02/17 07:28:37;;;;;;;8.35;6.50;;;;;;;;;;4983465;28;20037;-55
2022/02/17 07:31:02;;;;;;;8.57;6.65;;;;;;;;;;4990969;28;20042;-56
2022/02/17 07:33:27;;;;;;;8.47;6.30;;;;;;;;;;4985333;28;20040;-56
2022/02/17 07:35:52;;;;;;;8.10;6.87;;;;;;;;;;4982748;28;20258;-57
2022/02/17 07:38:18;;;;;;;9.87;6.40;;;;;;;;;;4981290;28;20034;-56
2022/02/17 07:40:43;;;;;;;9.53;7.40;;;;;;;;;;4981225;28;20261;-57
2022/02/17 07:43:09;;;;;;;9.68;6.80;;;;;;;;;;4982284;28;20387;-56
2022/02/17 07:45:34;;;;;;;9.57;6.90;;;;;;;;;;4984831;28;20542;-55
2022/02/17 07:48:00;;;;;;;9.70;7.22;;;;;;;;;;4990099;28;20053;-55
2022/02/17 07:50:26;;;;;;;8.57;6.57;;;;;;;;;;4995379;28;20481;-54
2022/02/17 07:52:51;;;;;;;9.35;7.18;;;;;;;;;;4988477;28;20537;-56
2022/02/17 07:55:16;;;;;;;9.17;6.97;;;;;;;;;;4985625;28;20503;-56
2022/02/17 07:57:41;;;;;;;8.93;6.97;;;;;;;;;;4986286;28;20360;-55
2022/02/17 08:00:07;;;;;;;11.77;7.07;;;;;;;;;;4984904;28;20026;-57
2022/02/17 08:02:33;;;;;;;9.00;6.80;;;;;;;;;;4984384;28;20666;-55
2022/02/17 08:04:59;;;;;;;10.15;7.40;;;;;;;;;;4996867;28;20068;-55
2022/02/17 08:07:24;;;;;;;9.93;7.53;;;;;;;;;;5001236;28;20041;-56
2022/02/17 08:09:49;;;;;;;9.53;7.13;;;;;;;;;;5001670;28;20038;-55
2022/02/17 08:12:15;;;;;;;10.82;6.70;;;;;;;;;;4986993;28;20309;-54
2022/02/17 08:14:40;;;;;;;9.93;7.50;;;;;;;;;;4982780;28;20062;-55
2022/02/17 08:17:05;;;;;;;9.30;7.03;;;;;;;;;;5001491;28;20037;-55
2022/02/17 08:19:33;;;;;;;9.18;7.13;;;;;;;;;;5001402;28;20052;-55
2022/02/17 08:21:59;;;;;;;9.82;6.88;;;;;;;;;;5001614;28;20109;-54
2022/02/17 08:24:24;;;;;;;8.43;6.80;;;;;;;;;;4997376;28;20528;-55
2022/02/17 08:26:49;;;;;;;9.63;7.37;;;;;;;;;;4984893;28;20131;-54
2022/02/17 08:29:15;;;;;;;9.57;6.93;;;;;;;;;;4995420;28;20273;-56
2022/02/17 08:31:42;;;;;;;10.90;7.27;;;;;;;;;;4990554;28;20791;-56
2022/02/17 08:34:08;;;;;;;9.95;7.40;;;;;;;;;;4998743;28;20124;-57
2022/02/17 08:36:33;;;;;;;11.15;7.57;;;;;;;;;;4999308;28;20107;-57
2022/02/17 08:38:59;;;;;;;10.63;7.50;;;;;;;;;;5001238;28;20104;-57
2022/02/17 08:41:24;;;;;;;9.63;7.28;;;;;;;;;;5000688;28;20709;-57
2022/02/17 08:43:49;;;;;;;9.10;7.28;;;;;;;;;;5000454;28;20075;-57
2022/02/17 08:46:14;;;;;;;9.65;7.65;;;;;;;;;;4997884;28;20053;-57
2022/02/17 08:48:40;;;;;;;8.93;7.03;;;;;;;;;;4994658;28;20117;-56
2022/02/17 08:51:05;;;;;;;9.48;7.22;;;;;;;;;;5000285;28;20269;-56
2022/02/17 08:53:30;;;;;;;9.80;7.70;;;;;;;;;;4993834;28;20022;-57
2022/02/17 08:55:55;;;;;;;11.67;7.30;;;;;;;;;;4999518;28;20331;-57
2022/02/17 08:58:21;;;;;;;10.93;7.30;;;;;;;;;;4991604;28;20037;-56
2022/02/17 09:00:46;;;;;;;9.47;7.13;;;;;;;;;;4986349;28;20798;-56
2022/02/17 09:03:12;;;;;;;9.83;7.67;;;;;;;;;;4993885;28;20278;-58
2022/02/17 09:05:38;;;;;;;9.88;7.38;;;;;;;;;;4986100;28;20145;-55
2022/02/17 09:08:04;;;;;;;10.15;7.93;;;;;;;;;;4969777;28;20156;-55
2022/02/17 09:10:29;;;;;;;9.48;7.53;;;;;;;;;;4993518;28;20049;-56
2022/02/17 09:12:54;;;;;;;10.67;7.90;;;;;;;;;;4989269;28;20422;-56
2022/02/17 09:15:19;;;;;;;9.48;8.00;;;;;;;;;;4999941;28;20104;-56
2022/02/17 09:17:48;;;;;;;9.23;7.20;;;;;;;;;;4979738;28;20022;-56
2022/02/17 09:20:15;;;;;;;10.02;7.55;;;;;;;;;;4986150;28;20026;-56
2022/02/17 09:22:40;;;;;;;9.73;7.68;;;;;;;;;;4991817;28;20543;-57
2022/02/17 09:25:06;;;;;;;10.60;8.20;;;;;;;;;;4994233;28;20034;-56
2022/02/17 09:27:31;;;;;;;10.20;7.55;;;;;;;;;;4986949;28;20074;-55
2022/02/17 09:29:57;;;;;;;9.00;7.30;;;;;;;;;;4978678;28;20041;-56
2022/02/17 09:32:23;;;;;;;11.80;8.35;;;;;;;;;;4987308;28;20371;-55
2022/02/17 09:34:48;;;;;;;9.73;7.80;;;;;;;;;;4993504;28;20607;-57
2022/02/17 09:37:13;;;;;;;10.33;7.80;;;;;;;;;;4996602;28;20025;-55
2022/02/17 09:39:38;;;;;;;11.03;7.77;;;;;;;;;;4997046;28;20294;-57
2022/02/17 09:42:04;;;;;;;11.63;8.50;;;;;;;;;;4996972;28;20261;-56
2022/02/17 09:44:29;;;;;;;10.48;8.20;;;;;;;;;;4978699;28;20041;-57
2022/02/17 09:46:55;;;;;;;11.68;8.15;;;;;;;;;;4978979;28;20117;-56
2022/02/17 09:49:20;;;;;;;11.18;8.38;;;;;;;;;;4979444;28;20503;-56
2022/02/17 09:51:48;;;;;;;11.95;8.07;;;;;;;;;;4979952;28;20032;-57
2022/02/17 09:54:13;;;;;;;11.20;8.35;;;;;;;;;;4982053;28;20773;-56
2022/02/17 09:56:39;;;;;;;9.68;8.32;;;;;;;;;;4994154;28;20116;-54
2022/02/17 09:59:04;;;;;;;10.75;8.07;;;;;;;;;;4992221;28;20033;-56
2022/02/17 10:01:31;;;;;;;10.82;7.80;;;;;;;;;;4982158;28;20022;-55
2022/02/17 10:04:15;;;;;;;10.48;8.10;;;;;;;;;;4999151;28;20026;-55
2022/02/17 10:06:42;;;;;;;11.98;8.13;;;;;;;;;;4980761;28;20057;-56
2022/02/17 10:09:07;;;;;;;10.65;7.60;;;;;;;;;;4981518;28;20579;-55
2022/02/17 10:11:33;;;;;;;10.63;7.82;;;;;;;;;;4994000;28;20534;-56
2022/02/17 10:14:05;;;;;;;12.40;8.10;;;;;;;;;;4999347;28;20033;-56
2022/02/17 10:16:51;;;;;;;9.10;7.65;;;;;;;;;;5000188;28;20041;-55
2022/02/17 10:19:16;;;;;;;11.25;8.60;;;;;;;;;;4993519;28;20113;-57
2022/02/17 10:21:41;;;;;;;10.88;8.07;;;;;;;;;;4999771;28;20101;-56
2022/02/17 10:24:06;;;;;;;11.53;8.37;;;;;;;;;;4996314;28;20025;-57
2022/02/17 10:26:32;;;;;;;9.73;7.60;;;;;;;;;;4994864;28;20049;-57
2022/02/17 10:28:59;;;;;;;8.77;7.30;;;;;;;;;;4991004;28;20122;-56
2022/02/17 10:31:28;;;;;;;10.27;7.68;;;;;;;;;;4970778;28;20312;-56
2022/02/17 10:33:54;;;;;;;9.73;7.70;;;;;;;;;;4962438;28;20272;-55
2022/02/17 10:36:32;;;;;;;10.48;7.90;;;;;;;;;;4983502;28;20053;-54
2022/02/17 10:39:07;;;;;;;10.98;7.88;;;;;;;;;;4982930;28;20112;-57
2022/02/17 10:41:51;;;;;;;10.32;7.68;;;;;;;;;;4999665;28;20423;-56
2022/02/17 10:44:17;;;;;;;9.43;7.68;;;;;;;;;;5002738;28;20496;-57
2022/02/17 10:46:42;;;;;;;10.07;7.60;;;;;;;;;;5002150;28;20060;-56
2022/02/17 10:49:37;;;;;;;9.70;7.63;;;;;;;;;;4983071;28;20046;-55
2022/02/17 10:52:02;;;;;;;8.80;7.47;;;;;;;;;;4991442;28;20034;-56
2022/02/17 10:54:27;;;;;;;10.25;7.35;;;;;;;;;;5001873;28;20084;-56
2022/02/17 10:56:53;;;;;;;9.60;7.57;;;;;;;;;;4984546;28;20042;-55
2022/02/17 11:02:05;;;;;;;9.18;7.15;;;;;;;;;;4984487;28;20284;-56
2022/02/17 11:04:30;;;;;;;9.70;7.22;;;;;;;;;;5001442;28;20026;-55
2022/02/17 11:06:55;;;;;;;11.20;8.27;;;;;;;;;;4984012;28;20072;-56
2022/02/17 11:09:21;;;;;;;10.20;7.77;;;;;;;;;;4985002;28;20025;-56
2022/02/17 11:11:50;;;;;;;9.67;7.60;;;;;;;;;;5002509;28;20036;-57
2022/02/17 11:14:15;;;;;;;8.65;7.45;;;;;;;;;;5002392;28;20026;-55
2022/02/17 11:16:41;;;;;;;10.13;7.60;;;;;;;;;;4986193;28;20034;-56
2022/02/17 11:19:06;;;;;;;9.63;7.22;;;;;;;;;;5001862;28;20253;-56
2022/02/17 11:21:32;;;;;;;9.13;7.47;;;;;;;;;;4982108;28;20025;-56
2022/02/17 11:23:58;;;;;;;9.00;7.13;;;;;;;;;;4970765;28;20320;-56
2022/02/17 11:26:24;;;;;;;8.70;7.32;;;;;;;;;;4989372;28;20569;-55
2022/02/17 11:28:50;;;;;;;11.07;7.22;;;;;;;;;;4988194;28;20026;-54
2022/02/17 11:31:15;;;;;;;9.27;6.93;;;;;;;;;;4987540;28;20039;-55
2022/02/17 11:33:41;;;;;;;8.45;7.20;;;;;;;;;;4994738;28;20108;-56
2022/02/17 11:36:19;;;;;;;9.80;7.63;;;;;;;;;;5000030;28;20084;-56
2022/02/17 11:39:00;;;;;;;9.07;7.47;;;;;;;;;;5001302;28;20040;-57
2022/02/17 11:41:28;;;;;;;8.13;6.40;;;;;;;;;;4980997;28;20030;-55
2022/02/17 11:43:53;;;;;;;11.18;7.90;;;;;;;;;;4985204;28;20026;-56
2022/02/17 11:46:37;;;;;;;11.23;7.55;;;;;;;;;;4981947;28;20503;-56
2022/02/17 11:49:03;;;;;;;8.50;6.90;;;;;;;;;;4984745;28;20048;-55
2022/02/17 11:51:28;;;;;;;9.07;7.33;;;;;;;;;;4966779;28;20507;-57
2022/02/17 11:54:15;;;;;;;9.00;7.32;;;;;;;;;;4992195;28;20974;-57
2022/02/17 11:56:44;;;;;;;8.18;7.00;;;;;;;;;;4982523;28;20053;-56
2022/02/17 11:59:19;;;;;;;8.63;6.93;;;;;;;;;;4982391;28;20109;-56
2022/02/17 12:01:44;;;;;;;8.85;7.10;;;;;;;;;;4991598;28;20038;-57
2022/02/17 12:04:26;;;;;;;8.20;6.73;;;;;;;;;;4983555;28;20666;-56
2022/02/17 12:06:52;;;;;;;9.57;6.88;;;;;;;;;;5001383;28;20315;-56
2022/02/17 12:09:33;;;;;;;7.95;7.00;;;;;;;;;;5001682;28;20599;-56
2022/02/17 12:12:16;;;;;;;7.57;6.78;;;;;;;;;;5001513;28;20430;-56
2022/02/17 12:14:51;;;;;;;8.88;7.20;;;;;;;;;;5001007;28;20026;-55
2022/02/17 12:17:16;;;;;;;8.48;6.63;;;;;;;;;;5001735;28;20113;-56
2022/02/17 12:19:41;;;;;;;8.32;6.60;;;;;;;;;;5001139;28;20121;-55
2022/02/17 12:22:10;;;;;;;8.00;6.43;;;;;;;;;;4980830;28;20512;-55
2022/02/17 12:24:42;;;;;;;8.32;7.00;;;;;;;;;;4983981;28;20126;-55
2022/02/17 12:27:07;;;;;;;8.68;6.72;;;;;;;;;;4981109;28;20038;-55
2022/02/17 12:29:33;;;;;;;8.70;6.43;;;;;;;;;;4982550;28;20027;-55
2022/02/17 12:32:02;;;;;;;8.15;6.53;;;;;;;;;;4982261;28;20273;-55
2022/02/17 12:34:28;;;;;;;8.55;6.75;;;;;;;;;;4981907;28;20032;-55
2022/02/17 12:36:53;;;;;;;8.45;6.32;;;;;;;;;;4982890;28;20029;-54
2022/02/17 12:39:19;;;;;;;8.05;6.30;;;;;;;;;;5001276;28;20191;-56
2022/02/17 12:41:56;;;;;;;7.32;6.30;;;;;;;;;;5000642;28;20103;-54
2022/02/17 12:44:25;;;;;;;8.77;7.03;;;;;;;;;;5001526;28;20030;-55
2022/02/17 12:46:50;;;;;;;7.97;6.43;;;;;;;;;;4991521;28;20037;-56
2022/02/17 12:49:16;;;;;;;7.87;6.23;;;;;;;;;;4965369;28;20042;-55
2022/02/17 12:51:41;;;;;;;7.10;6.17;;;;;;;;;;4970368;28;20792;-54
2022/02/17 12:54:08;;;;;;;6.50;5.53;;;;;;;;;;4983254;28;20026;-56
2022/02/17 12:56:34;;;;;;;8.57;6.32;;;;;;;;;;4996377;28;20153;-56
2022/02/17 12:59:02;;;;;;;8.85;6.43;;;;;;;;;;5000709;28;20045;-56
2022/02/17 13:01:28;;;;;;;8.23;6.45;;;;;;;;;;4994421;28;20420;-56
2022/02/17 13:03:56;;;;;;;7.97;6.10;;;;;;;;;;4981396;28;20033;-54
2022/02/17 13:06:22;;;;;;;8.02;6.05;;;;;;;;;;4995165;28;20296;-62
2022/02/17 13:08:53;;;;;;;7.55;5.80;;;;;;;;;;5000282;28;20030;-57
2022/02/17 13:11:19;;;;;;;7.88;5.90;;;;;;;;;;4994356;28;20035;-55
2022/02/17 13:13:45;;;;;;;9.23;6.30;;;;;;;;;;4979930;28;20014;-56
2022/02/17 13:16:11;;;;;;;8.73;6.75;;;;;;;;;;4980369;28;20089;-55
2022/02/17 13:18:37;;;;;;;7.57;6.30;;;;;;;;;;4979725;28;20520;-54
2022/02/17 13:21:11;;;;;;;8.40;6.03;;;;;;;;;;4969305;28;20036;-56
2022/02/17 13:23:36;;;;;;;8.65;6.70;;;;;;;;;;4993203;28;20266;-56
2022/02/17 13:26:02;;;;;;;9.77;6.57;;;;;;;;;;4991421;28;20040;-56
2022/02/17 13:28:27;;;;;;;6.72;5.68;;;;;;;;;;4999709;28;20018;-55
2022/02/17 13:30:52;;;;;;;6.23;5.63;;;;;;;;;;4979899;28;20081;-56
2022/02/17 13:33:18;;;;;;;7.73;6.20;;;;;;;;;;4968521;28;20475;-55
2022/02/17 13:35:44;;;;;;;8.23;6.32;;;;;;;;;;4980803;28;20269;-55
2022/02/17 13:38:09;;;;;;;7.47;6.07;;;;;;;;;;4992745;28;20026;-56
2022/02/17 13:40:43;;;;;;;7.90;5.68;;;;;;;;;;4988714;28;20030;-56
2022/02/17 13:43:09;;;;;;;7.97;5.80;;;;;;;;;;4983387;28;20702;-56
2022/02/17 13:45:35;;;;;;;8.30;5.83;;;;;;;;;;5000605;28;20022;-56
2022/02/17 13:48:00;;;;;;;6.40;5.47;;;;;;;;;;5000137;28;20363;-55
2022/02/17 13:50:26;;;;;;;7.33;5.27;;;;;;;;;;5000086;28;20034;-54
2022/02/17 13:52:58;;;;;;;7.57;6.10;;;;;;;;;;4999984;28;20044;-56
2022/02/17 13:55:24;;;;;;;7.68;5.32;;;;;;;;;;5000251;28;20061;-56
2022/02/17 13:57:50;;;;;;;7.57;5.95;;;;;;;;;;4999960;28;20105;-56
2022/02/17 14:00:16;;;;;;;8.35;5.53;;;;;;;;;;4981733;28;20076;-58
2022/02/17 14:02:41;;;;;;;7.07;5.40;;;;;;;;;;5000881;28;20447;-56
2022/02/17 14:05:07;;;;;;;6.90;5.67;;;;;;;;;;5003654;28;20479;-56
2022/02/17 14:07:39;;;;;;;8.25;5.55;;;;;;;;;;4990059;28;20345;-55
2022/02/17 14:10:06;;;;;;;7.30;5.30;;;;;;;;;;4987051;28;20033;-56
2022/02/17 14:12:31;;;;;;;9.40;5.60;;;;;;;;;;4986510;28;20026;-56
2022/02/17 14:14:59;;;;;;;6.78;5.20;;;;;;;;;;4984492;28;20049;-55
2022/02/17 14:17:24;;;;;;;7.30;5.70;;;;;;;;;;4984035;28;20132;-56
2022/02/17 14:19:50;;;;;;;8.32;6.40;;;;;;;;;;4986478;28;20778;-54
2022/02/17 14:22:15;;;;;;;6.53;5.30;;;;;;;;;;4997074;28;20575;-56
2022/02/17 14:24:40;;;;;;;7.27;5.77;;;;;;;;;;4991280;28;20113;-57
2022/02/17 14:27:05;;;;;;;6.70;5.07;;;;;;;;;;4984521;28;20488;-54
2022/02/17 14:29:31;;;;;;;9.02;5.43;;;;;;;;;;4983358;28;20258;-55
2022/02/17 14:31:56;;;;;;;7.25;5.38;;;;;;;;;;4983396;28;20567;-55
2022/02/17 14:34:22;;;;;;;6.97;5.25;;;;;;;;;;4982876;28;20034;-55
2022/02/17 14:36:47;;;;;;;7.47;5.35;;;;;;;;;;4984013;28;20105;-56
2022/02/17 14:39:13;;;;;;;7.43;5.28;;;;;;;;;;4985109;28;20050;-56